Time;durP1;ratioP1;P1;durP2;ratioP2;P2;SDS_P1;SDS_P2;PMS_P1;PMS_P2;Temp;Humidity;BMP_temperature;BMP_pressure;BME280_temperature;BME280_humidity;BME280_pressure;Samples;Min_cycle;Max_cycle;Signal;HPM_P1;HPM_P2
2022/07/29 00:00:23;;;;;;;0.00;0.00;;;14.10;99.90;;;;;;5035620;28;20473;-88
2022/07/29 00:02:51;;;;;;;0.00;0.00;;;14.10;99.90;;;;;;5034612;28;20551;-87
2022/07/29 00:05:19;;;;;;;0.00;0.00;;;14.10;99.90;;;;;;5033634;28;20536;-88
2022/07/29 00:07:47;;;;;;;0.00;0.00;;;14.00;99.90;;;;;;5035209;28;20999;-91
2022/07/29 00:10:17;;;;;;;0.00;0.00;;;14.00;99.90;;;;;;5033982;28;20445;-89
2022/07/29 00:12:45;;;;;;;0.00;0.00;;;14.00;99.90;;;;;;5043024;28;20465;-90
2022/07/29 00:15:14;;;;;;;0.00;0.00;;;14.10;99.90;;;;;;5049705;28;20439;-91
2022/07/29 00:17:43;;;;;;;0.00;0.00;;;14.10;99.90;;;;;;5049808;28;20464;-90
2022/07/29 00:20:12;;;;;;;0.00;0.00;;;14.20;99.90;;;;;;5048384;28;20468;-91
2022/07/29 00:22:40;;;;;;;0.00;0.00;;;14.20;99.90;;;;;;5048083;28;20493;-90
2022/07/29 00:25:09;;;;;;;0.00;0.00;;;14.20;99.90;;;;;;5046616;28;20449;-90
2022/07/29 00:27:40;;;;;;;0.00;0.00;;;14.20;99.90;;;;;;5043282;28;20468;-92
2022/07/29 00:30:11;;;;;;;0.00;0.00;;;14.20;99.90;;;;;;5039916;28;20441;-91
2022/07/29 00:32:40;;;;;;;0.00;0.00;;;14.10;99.90;;;;;;5039919;28;20469;-90
2022/07/29 00:37:58;;;;;;;0.00;0.00;;;14.10;99.90;;;;;;5029541;28;20564;-90
2022/07/29 00:40:26;;;;;;;0.00;0.00;;;14.10;99.90;;;;;;5038879;28;20473;-91
2022/07/29 00:42:56;;;;;;;0.00;0.00;;;14.10;99.90;;;;;;5036589;28;20477;-90
2022/07/29 00:45:26;;;;;;;0.00;0.00;;;14.10;99.90;;;;;;5037804;28;20530;-90
2022/07/29 00:47:54;;;;;;;0.00;0.00;;;14.10;99.90;;;;;;5037429;28;20449;-89
2022/07/29 00:50:23;;;;;;;0.00;0.00;;;14.10;99.90;;;;;;5039697;28;20666;-90
2022/07/29 00:52:52;;;;;;;0.00;0.00;;;14.10;99.90;;;;;;5052712;28;20465;-92
2022/07/29 00:55:23;;;;;;;0.00;0.00;;;14.10;99.90;;;;;;5040629;28;20498;-90
2022/07/29 00:57:53;;;;;;;0.00;0.00;;;14.10;99.90;;;;;;5037375;28;20668;-90
2022/07/29 01:00:25;;;;;;;0.00;0.00;;;14.10;99.90;;;;;;5037317;28;20568;-91
2022/07/29 01:02:54;;;;;;;0.00;0.00;;;14.00;99.90;;;;;;5037168;28;20991;-90
2022/07/29 01:05:24;;;;;;;0.00;0.00;;;14.10;99.90;;;;;;5037158;28;20445;-91
2022/07/29 01:08:14;;;;;;;0.00;0.00;;;14.00;99.90;;;;;;5035982;28;20443;-91
2022/07/29 01:10:43;;;;;;;0.00;0.00;;;14.00;99.90;;;;;;5036948;28;20990;-91
2022/07/29 01:13:15;;;;;;;0.00;0.00;;;14.00;99.90;;;;;;5037020;28;20804;-91
2022/07/29 01:15:49;;;;;;;0.00;0.00;;;13.90;99.90;;;;;;5037613;28;20522;-92
2022/07/29 01:18:23;;;;;;;0.00;0.00;;;13.90;99.90;;;;;;5038619;28;20450;-91
2022/07/29 01:21:22;;;;;;;0.00;0.00;;;13.90;99.90;;;;;;5040292;28;21038;-92
2022/07/29 01:24:35;;;;;;;0.00;0.00;;;13.90;99.90;;;;;;5040055;28;20472;-92
2022/07/29 01:27:22;;;;;;;0.00;0.00;;;13.90;99.90;;;;;;4979923;28;20440;-91
2022/07/29 01:29:57;;;;;;;0.00;0.00;;;13.80;99.90;;;;;;4977229;28;20451;-91
2022/07/29 01:32:31;;;;;;;0.00;0.00;;;13.80;99.90;;;;;;5014586;28;20488;-90
2022/07/29 01:35:05;;;;;;;0.00;0.00;;;13.80;99.90;;;;;;5041147;28;20841;-91
2022/07/29 01:37:42;;;;;;;0.00;0.00;;;13.80;99.90;;;;;;5041642;28;20452;-91
2022/07/29 01:40:21;;;;;;;0.00;0.00;;;13.90;99.90;;;;;;5043424;28;20484;-90
2022/07/29 01:42:53;;;;;;;0.00;0.00;;;13.90;99.90;;;;;;5042251;28;20472;-88
2022/07/29 01:45:29;;;;;;;0.00;0.00;;;13.90;99.90;;;;;;5039023;28;20448;-91
2022/07/29 01:48:03;;;;;;;0.00;0.00;;;14.00;99.90;;;;;;5038645;28;20453;-91
2022/07/29 01:50:36;;;;;;;0.00;0.00;;;14.00;99.90;;;;;;5049832;28;20506;-90
2022/07/29 01:53:10;;;;;;;0.00;0.00;;;14.00;99.90;;;;;;5052919;28;20457;-91
2022/07/29 01:55:44;;;;;;;0.00;0.00;;;14.00;99.90;;;;;;5052682;28;20460;-88
2022/07/29 01:58:14;;;;;;;0.00;0.00;;;14.00;99.90;;;;;;5047478;28;20503;-90
2022/07/29 02:00:49;;;;;;;0.00;0.00;;;14.10;99.90;;;;;;5042712;28;20468;-92
2022/07/29 02:03:19;;;;;;;0.00;0.00;;;14.10;99.90;;;;;;5040520;28;21253;-90
2022/07/29 02:05:50;;;;;;;0.00;0.00;;;14.10;99.90;;;;;;5038681;28;20473;-91
2022/07/29 02:08:20;;;;;;;0.00;0.00;;;14.10;99.90;;;;;;5038039;28;20449;-91
2022/07/29 02:10:50;;;;;;;0.00;0.00;;;14.10;99.90;;;;;;5036991;28;20449;-92
2022/07/29 02:13:21;;;;;;;0.00;0.00;;;14.10;99.90;;;;;;5036751;28;21084;-92
2022/07/29 02:15:52;;;;;;;0.00;0.00;;;14.20;99.90;;;;;;5035387;28;20540;-91
2022/07/29 02:21:03;;;;;;;0.00;0.00;;;14.20;99.90;;;;;;5521064;22;20491;-93
2022/07/29 02:23:35;;;;;;;0.00;0.00;;;14.20;99.90;;;;;;5053408;28;20645;-90
2022/07/29 02:26:20;;;;;;;0.00;0.00;;;14.20;99.90;;;;;;5056669;28;20649;-90
2022/07/29 02:28:50;;;;;;;0.00;0.00;;;14.20;99.90;;;;;;5064624;28;20440;-90
2022/07/29 02:31:35;;;;;;;0.00;0.00;;;14.20;99.90;;;;;;5059535;28;20444;-91
2022/07/29 02:34:06;;;;;;;0.00;0.00;;;14.20;99.90;;;;;;5052829;28;20681;-91
2022/07/29 02:36:35;;;;;;;0.00;0.00;;;14.30;99.90;;;;;;5053954;28;20683;-92
2022/07/29 02:39:05;;;;;;;0.00;0.00;;;14.30;99.90;;;;;;5053421;28;20479;-92
2022/07/29 02:41:43;;;;;;;0.00;0.00;;;14.30;99.90;;;;;;5053015;28;20494;-93
2022/07/29 02:44:13;;;;;;;0.00;0.00;;;14.30;99.90;;;;;;5053915;28;20743;-92
2022/07/29 02:46:49;;;;;;;0.00;0.00;;;14.30;99.90;;;;;;5059016;28;20420;-93
2022/07/29 02:49:26;;;;;;;0.00;0.00;;;14.40;99.90;;;;;;5059104;28;20451;-93
2022/07/29 02:52:01;;;;;;;0.00;0.00;;;14.40;99.90;;;;;;5062733;28;20471;-91
2022/07/29 02:54:36;;;;;;;0.00;0.00;;;14.30;99.90;;;;;;5061873;28;20455;-91
2022/07/29 02:57:10;;;;;;;0.00;0.00;;;14.30;99.90;;;;;;5064494;28;20452;-90
2022/07/29 02:59:43;;;;;;;0.00;0.00;;;14.40;99.90;;;;;;5067323;28;20452;-93
2022/07/29 03:02:35;;;;;;;0.00;0.00;;;14.40;99.90;;;;;;5065099;28;20480;-93
2022/07/29 03:05:06;;;;;;;0.00;0.00;;;14.40;99.90;;;;;;5044665;28;20433;-89
2022/07/29 03:07:37;;;;;;;0.00;0.00;;;14.40;99.90;;;;;;5049874;28;20453;-89
2022/07/29 03:10:09;;;;;;;0.00;0.00;;;14.40;99.90;;;;;;5050919;28;20441;-89
2022/07/29 03:12:42;;;;;;;0.00;0.00;;;14.40;99.90;;;;;;5051277;28;20463;-90
2022/07/29 03:15:14;;;;;;;0.00;0.00;;;14.50;99.90;;;;;;5042746;28;20449;-91
2022/07/29 03:17:45;;;;;;;0.00;0.00;;;14.40;99.90;;;;;;5037121;28;20434;-93
2022/07/29 03:20:14;;;;;;;0.00;0.00;;;14.50;99.90;;;;;;5033168;28;20472;-90
2022/07/29 03:22:46;;;;;;;0.00;0.00;;;14.50;99.90;;;;;;5028247;28;20527;-90
2022/07/29 03:25:16;;;;;;;0.00;0.00;;;14.50;99.90;;;;;;5039528;28;20456;-91
2022/07/29 03:27:45;;;;;;;0.00;0.00;;;14.50;99.90;;;;;;5053793;28;20524;-90
2022/07/29 03:30:15;;;;;;;0.00;0.00;;;14.50;99.90;;;;;;5056440;28;20462;-92
2022/07/29 03:32:50;;;;;;;0.00;0.00;;;14.50;99.90;;;;;;5055376;28;20471;-91
2022/07/29 03:35:19;;;;;;;0.00;0.00;;;14.50;99.90;;;;;;5056580;28;20459;-92
2022/07/29 03:37:48;;;;;;;0.00;0.00;;;14.60;99.90;;;;;;5052626;28;20440;-93
2022/07/29 03:40:21;;;;;;;0.00;0.00;;;14.60;99.90;;;;;;5053412;28;20868;-91
2022/07/29 03:42:51;;;;;;;0.00;0.00;;;14.60;99.90;;;;;;5052943;28;20495;-92
2022/07/29 03:45:20;;;;;;;0.00;0.00;;;14.60;99.90;;;;;;5052482;28;20803;-92
2022/07/29 03:47:54;;;;;;;0.00;0.00;;;14.60;99.90;;;;;;5052580;28;20696;-91
2022/07/29 03:50:28;;;;;;;0.00;0.00;;;14.70;99.90;;;;;;5051108;28;20497;-91
2022/07/29 03:52:56;;;;;;;0.00;0.00;;;14.70;99.90;;;;;;5051631;28;20496;-90
2022/07/29 03:55:25;;;;;;;0.00;0.00;;;14.80;99.90;;;;;;5053803;28;20466;-93
2022/07/29 03:57:53;;;;;;;0.00;0.00;;;14.80;99.90;;;;;;5064455;28;20490;-94
2022/07/29 04:00:23;;;;;;;0.00;0.00;;;14.70;99.90;;;;;;5060658;28;20696;-93
2022/07/29 04:02:53;;;;;;;0.00;0.00;;;14.70;99.90;;;;;;5050864;28;20484;-91
2022/07/29 04:05:21;;;;;;;0.00;0.00;;;14.80;99.90;;;;;;5053157;28;20463;-91
2022/07/29 04:07:50;;;;;;;0.00;0.00;;;14.80;99.90;;;;;;5051124;28;20958;-91
2022/07/29 04:10:20;;;;;;;0.00;0.00;;;14.80;99.90;;;;;;5054344;28;20452;-90
2022/07/29 04:12:59;;;;;;;0.00;0.00;;;14.80;99.90;;;;;;5056065;28;20861;-92
2022/07/29 04:15:28;;;;;;;0.00;0.00;;;14.90;99.90;;;;;;5055433;28;20460;-93
2022/07/29 04:18:00;;;;;;;0.00;0.00;;;14.90;99.90;;;;;;5052605;28;20747;-91
2022/07/29 04:20:30;;;;;;;0.00;0.00;;;14.90;99.90;;;;;;5053724;28;20514;-91
2022/07/29 04:22:58;;;;;;;0.00;0.00;;;15.00;99.90;;;;;;5053101;28;20492;-93
2022/07/29 04:25:27;;;;;;;0.00;0.00;;;15.00;99.90;;;;;;5051299;28;20497;-91
2022/07/29 04:28:01;;;;;;;0.00;0.00;;;15.00;99.90;;;;;;5048869;28;20796;-90
2022/07/29 04:30:30;;;;;;;0.00;0.00;;;15.00;99.90;;;;;;5051315;28;20950;-91
2022/07/29 04:33:00;;;;;;;0.00;0.00;;;15.10;99.90;;;;;;5050162;28;20464;-91
2022/07/29 04:35:29;;;;;;;0.00;0.00;;;15.10;99.90;;;;;;5053710;28;20551;-92
2022/07/29 04:38:05;;;;;;;0.00;0.00;;;15.10;99.90;;;;;;5052310;28;20447;-92
2022/07/29 04:40:33;;;;;;;0.00;0.00;;;15.10;99.90;;;;;;5050388;28;20711;-92
2022/07/29 04:43:06;;;;;;;0.00;0.00;;;15.10;99.90;;;;;;5047700;28;20821;-92
2022/07/29 04:45:34;;;;;;;0.00;0.00;;;15.20;99.90;;;;;;5054580;28;20525;-91
2022/07/29 04:48:06;;;;;;;0.00;0.00;;;15.10;99.90;;;;;;5053821;28;20456;-93
2022/07/29 04:50:34;;;;;;;0.00;0.00;;;15.10;99.90;;;;;;5056960;28;20531;-91
2022/07/29 04:53:04;;;;;;;0.00;0.00;;;15.20;99.90;;;;;;5047849;28;20491;-91
2022/07/29 04:55:33;;;;;;;0.00;0.00;;;15.20;99.90;;;;;;5054115;28;20495;-91
2022/07/29 04:58:05;;;;;;;0.00;0.00;;;15.20;99.90;;;;;;5142580;22;20491;-69
2022/07/29 05:00:33;;;;;;;0.00;0.00;;;15.20;99.90;;;;;;5056879;28;20842;-69
2022/07/29 05:03:01;;;;;;;0.00;0.00;;;15.30;99.90;;;;;;5056207;28;20478;-72
2022/07/29 05:05:30;;;;;;;0.00;0.00;;;15.30;99.90;;;;;;5057463;28;20436;-71
2022/07/29 05:07:58;;;;;;;0.00;0.00;;;15.30;99.90;;;;;;5056854;28;20470;-68
2022/07/29 05:10:26;;;;;;;0.00;0.00;;;15.30;99.90;;;;;;5056926;28;20645;-70
2022/07/29 05:12:53;;;;;;;0.00;0.00;;;15.30;99.90;;;;;;5057584;28;20445;-71
2022/07/29 05:15:21;;;;;;;0.00;0.00;;;15.40;99.90;;;;;;5054350;28;20984;-70
2022/07/29 05:17:49;;;;;;;0.00;0.00;;;15.40;99.90;;;;;;5054067;28;20760;-72
2022/07/29 05:20:18;;;;;;;0.00;0.00;;;15.40;99.90;;;;;;5053059;28;20980;-72
2022/07/29 05:22:47;;;;;;;0.00;0.00;;;15.50;99.90;;;;;;5056431;28;20487;-71
2022/07/29 05:25:15;;;;;;;0.00;0.00;;;15.60;99.90;;;;;;5057125;28;20444;-72
2022/07/29 05:27:43;;;;;;;0.00;0.00;;;15.60;99.90;;;;;;5056923;28;20983;-71
2022/07/29 05:30:11;;;;;;;0.00;0.00;;;15.70;99.90;;;;;;5060144;28;20797;-72
2022/07/29 05:32:39;;;;;;;0.00;0.00;;;15.70;99.90;;;;;;5060481;28;20534;-71
2022/07/29 05:35:08;;;;;;;0.00;0.00;;;15.80;99.90;;;;;;5059276;28;20458;-71
2022/07/29 05:37:36;;;;;;;0.00;0.00;;;15.90;99.90;;;;;;5060412;28;21088;-71
2022/07/29 05:40:07;;;;;;;0.00;0.00;;;16.00;99.90;;;;;;5060495;28;20445;-71
2022/07/29 05:42:35;;;;;;;0.00;0.00;;;16.10;99.90;;;;;;5060660;28;20471;-72
2022/07/29 05:45:04;;;;;;;0.00;0.00;;;16.20;99.90;;;;;;5060818;28;20945;-73
2022/07/29 05:47:32;;;;;;;0.00;0.00;;;16.30;99.90;;;;;;5059783;28;20896;-70
2022/07/29 05:50:00;;;;;;;0.00;0.00;;;16.50;99.90;;;;;;5060791;28;21078;-69
2022/07/29 05:52:28;;;;;;;0.00;0.00;;;16.50;99.90;;;;;;5065136;28;20490;-72
2022/07/29 05:54:56;;;;;;;0.00;0.00;;;16.60;99.90;;;;;;5066821;28;20761;-73
2022/07/29 05:57:25;;;;;;;0.00;0.00;;;16.70;99.90;;;;;;5063370;28;20471;-73
2022/07/29 05:59:53;;;;;;;0.00;0.00;;;16.80;99.90;;;;;;5061499;28;20995;-72
2022/07/29 06:02:21;;;;;;;0.00;0.00;;;16.90;99.90;;;;;;5060038;28;20758;-71
2022/07/29 06:04:49;;;;;;;0.00;0.00;;;17.00;99.90;;;;;;5061576;28;20482;-70
2022/07/29 06:07:17;;;;;;;0.00;0.00;;;17.10;99.90;;;;;;5060379;28;20471;-74
2022/07/29 06:09:45;;;;;;;0.00;0.00;;;17.20;99.90;;;;;;5062179;28;20536;-76
2022/07/29 06:12:14;;;;;;;0.00;0.00;;;17.30;99.90;;;;;;5063552;28;20611;-76
2022/07/29 06:14:43;;;;;;;0.00;0.00;;;17.40;99.90;;;;;;5063490;28;20657;-75
2022/07/29 06:17:11;;;;;;;0.00;0.00;;;17.60;99.90;;;;;;5060420;28;21042;-75
2022/07/29 06:19:39;;;;;;;0.00;0.00;;;17.70;99.90;;;;;;5060827;28;20518;-80
2022/07/29 06:22:07;;;;;;;0.00;0.00;;;17.80;99.90;;;;;;5065625;28;20464;-81
2022/07/29 06:24:34;;;;;;;0.00;0.00;;;17.90;99.90;;;;;;5064931;28;20723;-78
2022/07/29 06:27:02;;;;;;;0.00;0.00;;;17.90;99.90;;;;;;5059611;28;20452;-78
2022/07/29 06:29:30;;;;;;;0.00;0.00;;;18.00;99.90;;;;;;5059674;28;20814;-78
2022/07/29 06:31:59;;;;;;;0.00;0.00;;;18.10;99.90;;;;;;5058898;28;20458;-78
2022/07/29 06:34:27;;;;;;;0.00;0.00;;;18.20;99.90;;;;;;5059425;28;20850;-77
2022/07/29 06:36:55;;;;;;;0.00;0.00;;;18.30;99.90;;;;;;5059702;28;20455;-79
2022/07/29 06:39:23;;;;;;;0.00;0.00;;;18.40;99.90;;;;;;5059202;28;20847;-78
2022/07/29 06:41:51;;;;;;;0.00;0.00;;;18.50;99.90;;;;;;5058510;28;20968;-79
2022/07/29 06:44:19;;;;;;;0.00;0.00;;;18.60;99.90;;;;;;5059308;28;21031;-80
2022/07/29 06:46:49;;;;;;;0.00;0.00;;;18.70;99.90;;;;;;5058909;28;20476;-78
2022/07/29 06:49:18;;;;;;;0.00;0.00;;;18.80;99.90;;;;;;5060444;28;20528;-77
2022/07/29 06:51:46;;;;;;;0.00;0.00;;;18.90;99.90;;;;;;5054808;28;20453;-78
2022/07/29 06:54:14;;;;;;;0.00;0.00;;;19.00;99.90;;;;;;5058933;28;20439;-80
2022/07/29 06:56:52;;;;;;;0.00;0.00;;;19.10;99.90;;;;;;5059334;28;20905;-78
2022/07/29 06:59:20;;;;;;;0.00;0.00;;;19.30;99.90;;;;;;5058575;28;20738;-79
2022/07/29 07:01:58;;;;;;;0.00;0.00;;;19.40;99.90;;;;;;5058819;28;20466;-78
2022/07/29 07:04:28;;;;;;;0.00;0.00;;;19.40;99.90;;;;;;5059004;28;20583;-77
2022/07/29 07:06:56;;;;;;;0.00;0.00;;;19.50;99.90;;;;;;5059408;28;20520;-76
2022/07/29 07:09:24;;;;;;;0.00;0.00;;;19.60;99.90;;;;;;5065625;28;20507;-79
2022/07/29 07:12:07;;;;;;;0.00;0.00;;;19.70;99.90;;;;;;5061136;28;20467;-79
2022/07/29 07:14:37;;;;;;;0.00;0.00;;;19.70;99.90;;;;;;5060686;28;20519;-75
2022/07/29 07:17:06;;;;;;;0.00;0.00;;;19.90;99.90;;;;;;5058471;28;20451;-78
2022/07/29 07:19:36;;;;;;;0.00;0.00;;;19.90;99.90;;;;;;5060174;28;20459;-76
2022/07/29 07:22:03;;;;;;;0.00;0.00;;;20.10;99.90;;;;;;5040116;28;21149;-78
2022/07/29 07:24:32;;;;;;;0.00;0.00;;;20.10;99.90;;;;;;5042136;28;20483;-76
2022/07/29 07:27:00;;;;;;;0.00;0.00;;;20.20;99.90;;;;;;5059532;28;20467;-77
2022/07/29 07:29:28;;;;;;;0.00;0.00;;;20.20;99.90;;;;;;5054204;28;20538;-78
2022/07/29 07:31:55;;;;;;;0.00;0.00;;;20.30;99.90;;;;;;5057093;28;20462;-79
2022/07/29 07:34:28;;;;;;;0.00;0.00;;;20.30;99.90;;;;;;5058868;28;20444;-79
2022/07/29 07:36:57;;;;;;;0.00;0.00;;;20.30;99.90;;;;;;5058836;28;20512;-80
2022/07/29 07:39:25;;;;;;;0.00;0.00;;;20.30;99.90;;;;;;5059233;28;20450;-79
2022/07/29 07:41:53;;;;;;;0.00;0.00;;;20.30;99.90;;;;;;5058051;28;20797;-79
2022/07/29 07:44:21;;;;;;;0.00;0.00;;;20.30;99.90;;;;;;5057199;28;20850;-79
2022/07/29 07:46:50;;;;;;;0.00;0.00;;;20.30;99.90;;;;;;5058097;28;20826;-79
2022/07/29 07:49:18;;;;;;;0.00;0.00;;;20.30;99.90;;;;;;5058807;28;20466;-78
2022/07/29 07:51:46;;;;;;;0.00;0.00;;;20.20;99.90;;;;;;5056452;28;20960;-77
2022/07/29 07:54:19;;;;;;;0.00;0.00;;;20.20;99.90;;;;;;5057361;28;20443;-77
2022/07/29 07:56:49;;;;;;;0.00;0.00;;;20.20;99.90;;;;;;5057941;28;20447;-76
2022/07/29 07:59:20;;;;;;;0.00;0.00;;;20.20;99.90;;;;;;5058065;28;20543;-77
2022/07/29 08:01:48;;;;;;;0.00;0.00;;;20.30;99.90;;;;;;5057405;28;20813;-77
2022/07/29 08:04:23;;;;;;;0.00;0.00;;;20.40;99.90;;;;;;5057558;28;20509;-77
2022/07/29 08:06:55;;;;;;;0.00;0.00;;;20.50;99.90;;;;;;5056644;28;20769;-77
2022/07/29 08:09:26;;;;;;;0.00;0.00;;;20.50;99.90;;;;;;5057469;28;20439;-77
2022/07/29 08:11:58;;;;;;;0.00;0.00;;;20.60;99.90;;;;;;5056961;28;20773;-76
2022/07/29 08:14:26;;;;;;;0.00;0.00;;;20.70;99.90;;;;;;5057563;28;20898;-76
2022/07/29 08:16:54;;;;;;;0.00;0.00;;;20.90;99.90;;;;;;5057844;28;20439;-76
2022/07/29 08:19:22;;;;;;;0.00;0.00;;;21.00;99.90;;;;;;5057645;28;20447;-77
2022/07/29 08:21:52;;;;;;;0.00;0.00;;;21.10;99.90;;;;;;5057066;28;20784;-77
2022/07/29 08:27:07;;;;;;;0.00;0.00;;;21.30;99.90;;;;;;5057523;28;20573;-77
2022/07/29 08:29:55;;;;;;;0.00;0.00;;;21.40;99.90;;;;;;5057096;28;20435;-76
2022/07/29 08:32:23;;;;;;;0.00;0.00;;;21.40;99.90;;;;;;5057633;28;20455;-78
2022/07/29 08:35:11;;;;;;;0.00;0.00;;;21.50;99.90;;;;;;5057585;28;20628;-77
2022/07/29 08:37:39;;;;;;;0.00;0.00;;;21.60;99.90;;;;;;5056506;28;20502;-76
2022/07/29 08:40:07;;;;;;;0.00;0.00;;;21.60;99.90;;;;;;5055483;28;20443;-77
2022/07/29 08:42:37;;;;;;;0.00;0.00;;;21.80;99.90;;;;;;5056371;28;20458;-79
2022/07/29 08:45:07;;;;;;;0.00;0.00;;;21.90;99.90;;;;;;5056185;28;20865;-78
2022/07/29 08:47:36;;;;;;;0.00;0.00;;;22.00;99.90;;;;;;5059313;28;20475;-80
2022/07/29 08:50:05;;;;;;;0.00;0.00;;;22.00;99.90;;;;;;5059731;28;20834;-78
2022/07/29 08:52:37;;;;;;;0.00;0.00;;;22.10;99.90;;;;;;5059729;28;20448;-80
2022/07/29 08:55:06;;;;;;;0.00;0.00;;;22.10;99.90;;;;;;5061210;28;20548;-75
2022/07/29 08:57:35;;;;;;;0.00;0.00;;;22.10;99.90;;;;;;5057246;28;20495;-76
2022/07/29 09:00:08;;;;;;;0.00;0.00;;;22.10;99.90;;;;;;5056931;28;20847;-76
2022/07/29 09:02:42;;;;;;;0.00;0.00;;;22.10;99.90;;;;;;5057598;28;20489;-77
2022/07/29 09:05:14;;;;;;;0.00;0.00;;;22.00;99.90;;;;;;5060382;28;20834;-74
2022/07/29 09:07:43;;;;;;;0.00;0.00;;;22.00;99.90;;;;;;5061156;28;20478;-76
2022/07/29 09:10:11;;;;;;;0.00;0.00;;;22.00;99.90;;;;;;5060941;28;20449;-76
2022/07/29 09:12:40;;;;;;;0.00;0.00;;;22.00;99.90;;;;;;5061535;28;20440;-75
2022/07/29 09:15:10;;;;;;;0.00;0.00;;;22.00;99.90;;;;;;5061272;28;20451;-76
2022/07/29 09:17:42;;;;;;;0.00;0.00;;;22.10;99.90;;;;;;5062461;28;20454;-75
2022/07/29 09:20:11;;;;;;;0.00;0.00;;;22.10;99.90;;;;;;5061368;28;20496;-75
2022/07/29 09:22:39;;;;;;;0.00;0.00;;;22.10;99.90;;;;;;5060807;28;20439;-74
2022/07/29 09:25:09;;;;;;;0.00;0.00;;;22.20;99.90;;;;;;5061157;28;20480;-74
2022/07/29 09:27:37;;;;;;;0.00;0.00;;;22.30;99.90;;;;;;5060739;28;20844;-75
2022/07/29 09:30:10;;;;;;;0.00;0.00;;;22.30;99.90;;;;;;5060907;28;20996;-74
2022/07/29 09:32:58;;;;;;;0.00;0.00;;;22.40;99.90;;;;;;5061213;28;20515;-76
2022/07/29 09:35:26;;;;;;;0.00;0.00;;;22.40;99.90;;;;;;5065447;28;20427;-73
2022/07/29 09:37:55;;;;;;;0.00;0.00;;;22.40;99.90;;;;;;5061698;28;21019;-73
2022/07/29 09:40:25;;;;;;;0.00;0.00;;;22.40;99.90;;;;;;5061579;28;20491;-75
2022/07/29 09:42:56;;;;;;;0.00;0.00;;;22.40;99.90;;;;;;5061449;28;20590;-75
2022/07/29 09:45:29;;;;;;;0.00;0.00;;;22.50;99.90;;;;;;5060693;28;20503;-74
2022/07/29 09:48:02;;;;;;;0.00;0.00;;;22.50;99.90;;;;;;5061057;28;20476;-74
2022/07/29 09:50:38;;;;;;;0.00;0.00;;;22.60;99.90;;;;;;5060156;28;20445;-75
2022/07/29 09:53:09;;;;;;;0.00;0.00;;;22.70;99.90;;;;;;5061018;28;20443;-76
2022/07/29 09:55:47;;;;;;;0.00;0.00;;;22.80;99.90;;;;;;5061739;28;20435;-74
2022/07/29 09:58:17;;;;;;;0.00;0.00;;;22.90;99.90;;;;;;5061001;28;20491;-76
2022/07/29 10:00:46;;;;;;;0.00;0.00;;;23.00;99.90;;;;;;5061548;28;20453;-78
2022/07/29 10:03:16;;;;;;;0.00;0.00;;;23.20;99.90;;;;;;5065193;28;20511;-78
2022/07/29 10:05:45;;;;;;;0.00;0.00;;;23.30;99.90;;;;;;5063833;28;20514;-76
2022/07/29 10:08:13;;;;;;;0.00;0.00;;;23.40;99.90;;;;;;5063853;28;20479;-77
2022/07/29 10:10:43;;;;;;;0.00;0.00;;;23.50;99.90;;;;;;5060675;28;20564;-76
2022/07/29 10:13:12;;;;;;;0.00;0.00;;;23.60;99.90;;;;;;5060709;28;20526;-76
2022/07/29 10:15:45;;;;;;;0.00;0.00;;;23.70;99.90;;;;;;5058430;28;20453;-79
2022/07/29 10:18:19;;;;;;;0.00;0.00;;;23.80;99.90;;;;;;5060071;28;20480;-82
2022/07/29 10:20:47;;;;;;;0.00;0.00;;;23.90;99.90;;;;;;5059753;28;20450;-78
2022/07/29 10:23:16;;;;;;;0.00;0.00;;;24.10;99.90;;;;;;5058708;28;20457;-78
2022/07/29 10:25:45;;;;;;;0.00;0.00;;;24.30;99.90;;;;;;5059846;28;20510;-78
2022/07/29 10:28:14;;;;;;;0.00;0.00;;;24.50;99.90;;;;;;5060307;28;20880;-77
2022/07/29 10:30:45;;;;;;;0.00;0.00;;;24.60;99.90;;;;;;5059413;28;20452;-77
2022/07/29 10:33:36;;;;;;;0.00;0.00;;;24.80;99.90;;;;;;5059725;28;20471;-77
2022/07/29 10:36:28;;;;;;;0.00;0.00;;;24.90;99.90;;;;;;5058575;28;20751;-76
2022/07/29 10:39:05;;;;;;;0.00;0.00;;;25.00;99.90;;;;;;5059694;28;20458;-77
2022/07/29 10:42:06;;;;;;;0.00;0.00;;;25.20;99.90;;;;;;5059219;28;20833;-77
2022/07/29 10:44:40;;;;;;;0.00;0.00;;;25.20;99.90;;;;;;5051578;28;20608;-76
2022/07/29 10:47:08;;;;;;;0.00;0.00;;;25.30;99.90;;;;;;5058955;28;20541;-76
2022/07/29 10:49:38;;;;;;;0.00;0.00;;;25.30;99.90;;;;;;5059236;28;20450;-77
2022/07/29 10:52:09;;;;;;;0.00;0.00;;;25.40;99.90;;;;;;5058459;28;20783;-77
2022/07/29 10:54:49;;;;;;;0.00;0.00;;;25.50;99.90;;;;;;5059689;28;20661;-76
2022/07/29 10:57:25;;;;;;;0.00;0.00;;;25.50;99.80;;;;;;5058971;28;20490;-77
2022/07/29 11:00:33;;;;;;;0.00;0.00;;;25.50;99.90;;;;;;5059100;28;20816;-77
2022/07/29 11:03:01;;;;;;;0.00;0.00;;;25.60;99.90;;;;;;5059984;28;20455;-77
2022/07/29 11:05:55;;;;;;;0.00;0.00;;;25.60;99.90;;;;;;5058744;28;20482;-77
2022/07/29 11:08:26;;;;;;;0.00;0.00;;;25.60;99.80;;;;;;5058457;28;20864;-76
2022/07/29 11:11:31;;;;;;;0.00;0.00;;;25.60;99.80;;;;;;5059126;28;21018;-77
2022/07/29 11:14:01;;;;;;;0.00;0.00;;;25.50;99.40;;;;;;5039323;28;20431;-72
2022/07/29 11:17:03;;;;;;;0.00;0.00;;;25.50;99.40;;;;;;5038724;28;20466;-78
2022/07/29 11:19:35;;;;;;;0.00;0.00;;;25.50;99.70;;;;;;5050941;28;20454;-77
2022/07/29 11:22:03;;;;;;;0.00;0.00;;;25.70;99.30;;;;;;5057959;28;20451;-77
2022/07/29 11:24:34;;;;;;;0.00;0.00;;;25.70;99.40;;;;;;5057692;28;20520;-75
2022/07/29 11:27:16;;;;;;;0.00;0.00;;;25.70;99.70;;;;;;5057994;28;20455;-76
2022/07/29 11:29:52;;;;;;;0.00;0.00;;;25.80;99.40;;;;;;5058239;28;20440;-76
2022/07/29 11:32:23;;;;;;;0.00;0.00;;;25.90;99.50;;;;;;5058720;28;20823;-77
2022/07/29 11:35:15;;;;;;;0.00;0.00;;;26.10;99.20;;;;;;5057858;28;20919;-79
2022/07/29 11:38:25;;;;;;;0.00;0.00;;;26.30;99.70;;;;;;5038987;28;20468;-76
2022/07/29 11:41:22;;;;;;;0.00;0.00;;;26.50;99.10;;;;;;5046530;28;20467;-79
2022/07/29 11:43:52;;;;;;;0.00;0.00;;;26.70;98.60;;;;;;5061856;28;20820;-84
2022/07/29 11:46:48;;;;;;;0.00;0.00;;;26.80;98.60;;;;;;5059177;28;20487;-78
2022/07/29 11:49:22;;;;;;;0.00;0.00;;;26.90;97.50;;;;;;5070177;28;20421;-80
2022/07/29 11:52:02;;;;;;;0.00;0.00;;;26.80;97.70;;;;;;5075465;28;20433;-82
2022/07/29 11:54:33;;;;;;;0.00;0.00;;;26.80;98.00;;;;;;5073756;28;20700;-82
2022/07/29 11:57:21;;;;;;;0.00;0.00;;;26.70;98.10;;;;;;5074980;28;20682;-81
2022/07/29 12:00:05;;;;;;;0.00;0.00;;;26.50;97.50;;;;;;5076968;28;20446;-83
2022/07/29 12:02:41;;;;;;;0.00;0.00;;;26.50;97.70;;;;;;5071495;28;20487;-82
2022/07/29 12:05:11;;;;;;;0.00;0.00;;;26.30;97.90;;;;;;5071712;28;20468;-81
2022/07/29 12:07:41;;;;;;;0.00;0.00;;;26.20;98.00;;;;;;5078730;28;20524;-83
2022/07/29 12:10:14;;;;;;;0.00;0.00;;;26.20;98.10;;;;;;5084327;28;20505;-82
2022/07/29 12:12:52;;;;;;;0.00;0.00;;;26.20;98.00;;;;;;5077938;28;20443;-83
2022/07/29 12:15:21;;;;;;;0.00;0.00;;;26.20;98.10;;;;;;5071796;28;20655;-82
2022/07/29 12:17:49;;;;;;;0.00;0.00;;;26.20;98.00;;;;;;5069770;28;20998;-83
2022/07/29 12:20:25;;;;;;;0.00;0.00;;;26.20;98.20;;;;;;5069469;28;20459;-82
2022/07/29 12:22:54;;;;;;;0.00;0.00;;;26.30;98.20;;;;;;5067372;28;20439;-80
2022/07/29 12:25:24;;;;;;;0.00;0.00;;;26.50;97.50;;;;;;5063350;28;20455;-80
2022/07/29 12:28:03;;;;;;;0.00;0.00;;;26.60;97.80;;;;;;5063332;28;20504;-76
2022/07/29 12:30:40;;;;;;;0.00;0.00;;;26.80;97.70;;;;;;5059253;28;20808;-76
2022/07/29 12:33:17;;;;;;;0.00;0.00;;;26.90;97.70;;;;;;5063772;28;20518;-81
2022/07/29 12:35:49;;;;;;;0.00;0.00;;;27.00;97.30;;;;;;5070760;28;20433;-80
2022/07/29 12:38:34;;;;;;;0.00;0.00;;;27.10;97.30;;;;;;5061810;28;20821;-76
2022/07/29 12:41:03;;;;;;;0.00;0.00;;;27.20;97.20;;;;;;5060199;28;20443;-77
2022/07/29 12:43:31;;;;;;;0.00;0.00;;;27.30;96.80;;;;;;5062682;28;20771;-78
2022/07/29 12:46:13;;;;;;;0.00;0.00;;;27.30;96.50;;;;;;5062408;28;20468;-78
2022/07/29 12:48:42;;;;;;;0.00;0.00;;;27.30;96.80;;;;;;5063111;28;20997;-75
2022/07/29 12:51:14;;;;;;;0.00;0.00;;;27.30;96.80;;;;;;5061791;28;20441;-77
2022/07/29 12:53:42;;;;;;;0.00;0.00;;;27.30;96.70;;;;;;5061705;28;20464;-76
2022/07/29 12:56:16;;;;;;;0.00;0.00;;;27.30;96.40;;;;;;5062546;28;20448;-80
2022/07/29 12:59:13;;;;;;;0.00;0.00;;;27.30;96.10;;;;;;5062012;28;20665;-81
2022/07/29 13:01:41;;;;;;;0.00;0.00;;;27.20;95.80;;;;;;5044992;28;20529;-79
2022/07/29 13:04:09;;;;;;;0.00;0.00;;;27.10;96.20;;;;;;5064886;28;20535;-83
2022/07/29 13:06:42;;;;;;;0.00;0.00;;;27.00;96.70;;;;;;5066825;28;20545;-85
2022/07/29 13:09:18;;;;;;;0.00;0.00;;;26.80;96.10;;;;;;5070404;28;20616;-84
2022/07/29 13:11:48;;;;;;;0.00;0.00;;;26.70;97.50;;;;;;5061146;28;20945;-75
2022/07/29 13:14:31;;;;;;;0.00;0.00;;;26.70;98.30;;;;;;5061796;28;20434;-79
2022/07/29 13:17:05;;;;;;;0.00;0.00;;;26.60;99.30;;;;;;5063254;28;20683;-83
2022/07/29 13:19:36;;;;;;;0.00;0.00;;;26.50;99.80;;;;;;5063266;28;20999;-79
2022/07/29 13:22:06;;;;;;;0.00;0.00;;;26.50;99.90;;;;;;5069823;28;20521;-84